sensor_id;sensor_type;location;lat;lon;timestamp;P1;durP1;ratioP1;P2;durP2;ratioP2
70543;SDS011;58097;48.364;-1.224;2022-12-18T00:00:54;30.67;;;13.95;;
70543;SDS011;58097;48.364;-1.224;2022-12-18T00:03:20;36.15;;;15.20;;
70543;SDS011;58097;48.364;-1.224;2022-12-18T00:05:54;34.95;;;14.95;;
70543;SDS011;58097;48.364;-1.224;2022-12-18T00:08:19;32.55;;;16.40;;
70543;SDS011;58097;48.364;-1.224;2022-12-18T00:10:45;34.88;;;15.88;;
70543;SDS011;58097;48.364;-1.224;2022-12-18T00:13:11;34.22;;;16.23;;
70543;SDS011;58097;48.364;-1.224;2022-12-18T00:15:38;28.05;;;13.50;;
70543;SDS011;58097;48.364;-1.224;2022-12-18T00:18:04;34.70;;;16.00;;
70543;SDS011;58097;48.364;-1.224;2022-12-18T00:20:30;35.38;;;18.67;;
70543;SDS011;58097;48.364;-1.224;2022-12-18T00:23:00;37.00;;;15.77;;
70543;SDS011;58097;48.364;-1.224;2022-12-18T00:25:25;35.05;;;15.30;;
70543;SDS011;58097;48.364;-1.224;2022-12-18T00:27:50;37.65;;;15.85;;
70543;SDS011;58097;48.364;-1.224;2022-12-18T00:30:16;34.28;;;16.25;;
70543;SDS011;58097;48.364;-1.224;2022-12-18T00:32:41;34.72;;;15.70;;
70543;SDS011;58097;48.364;-1.224;2022-12-18T00:35:07;32.88;;;15.55;;
70543;SDS011;58097;48.364;-1.224;2022-12-18T00:37:35;32.53;;;14.80;;
70543;SDS011;58097;48.364;-1.224;2022-12-18T00:40:01;39.60;;;15.70;;
70543;SDS011;58097;48.364;-1.224;2022-12-18T00:42:27;35.65;;;15.70;;
70543;SDS011;58097;48.364;-1.224;2022-12-18T00:45:11;31.42;;;16.52;;
70543;SDS011;58097;48.364;-1.224;2022-12-18T00:47:36;34.92;;;16.00;;
70543;SDS011;58097;48.364;-1.224;2022-12-18T00:50:02;34.78;;;15.38;;
70543;SDS011;58097;48.364;-1.224;2022-12-18T00:52:27;35.55;;;15.95;;
70543;SDS011;58097;48.364;-1.224;2022-12-18T00:54:53;37.10;;;17.58;;
70543;SDS011;58097;48.364;-1.224;2022-12-18T00:57:18;38.38;;;15.07;;
70543;SDS011;58097;48.364;-1.224;2022-12-18T00:59:43;29.75;;;13.38;;
70543;SDS011;58097;48.364;-1.224;2022-12-18T01:02:09;37.42;;;15.95;;
70543;SDS011;58097;48.364;-1.224;2022-12-18T01:04:34;32.45;;;15.95;;
70543;SDS011;58097;48.364;-1.224;2022-12-18T01:07:00;39.58;;;15.77;;
70543;SDS011;58097;48.364;-1.224;2022-12-18T01:09:25;32.90;;;15.05;;
70543;SDS011;58097;48.364;-1.224;2022-12-18T01:11:51;39.92;;;16.75;;
70543;SDS011;58097;48.364;-1.224;2022-12-18T01:14:16;36.03;;;15.38;;
70543;SDS011;58097;48.364;-1.224;2022-12-18T01:16:42;42.60;;;17.08;;
70543;SDS011;58097;48.364;-1.224;2022-12-18T01:19:07;38.35;;;17.27;;
70543;SDS011;58097;48.364;-1.224;2022-12-18T01:21:32;31.67;;;15.38;;
70543;SDS011;58097;48.364;-1.224;2022-12-18T01:23:58;37.42;;;16.30;;
70543;SDS011;58097;48.364;-1.224;2022-12-18T01:26:23;39.15;;;17.48;;
70543;SDS011;58097;48.364;-1.224;2022-12-18T01:28:50;33.75;;;15.27;;
70543;SDS011;58097;48.364;-1.224;2022-12-18T01:33:40;39.90;;;17.17;;
70543;SDS011;58097;48.364;-1.224;2022-12-18T01:36:06;38.83;;;15.57;;
70543;SDS011;58097;48.364;-1.224;2022-12-18T01:38:32;32.75;;;15.05;;
70543;SDS011;58097;48.364;-1.224;2022-12-18T01:40:58;37.25;;;14.38;;
70543;SDS011;58097;48.364;-1.224;2022-12-18T01:43:46;31.85;;;16.15;;
70543;SDS011;58097;48.364;-1.224;2022-12-18T01:46:11;32.70;;;14.65;;
70543;SDS011;58097;48.364;-1.224;2022-12-18T01:48:37;42.78;;;17.95;;
70543;SDS011;58097;48.364;-1.224;2022-12-18T01:51:04;37.65;;;16.80;;
70543;SDS011;58097;48.364;-1.224;2022-12-18T01:53:31;34.15;;;16.15;;
70543;SDS011;58097;48.364;-1.224;2022-12-18T01:55:57;40.80;;;16.10;;
70543;SDS011;58097;48.364;-1.224;2022-12-18T01:58:27;38.33;;;17.05;;
70543;SDS011;58097;48.364;-1.224;2022-12-18T02:01:00;34.75;;;15.35;;
70543;SDS011;58097;48.364;-1.224;2022-12-18T02:03:26;33.60;;;16.63;;
70543;SDS011;58097;48.364;-1.224;2022-12-18T02:22:07;37.15;;;17.00;;
70543;SDS011;58097;48.364;-1.224;2022-12-18T02:27:39;33.75;;;15.50;;
70543;SDS011;58097;48.364;-1.224;2022-12-18T02:30:07;34.53;;;15.95;;
70543;SDS011;58097;48.364;-1.224;2022-12-18T02:32:43;42.08;;;17.02;;
70543;SDS011;58097;48.364;-1.224;2022-12-18T02:35:25;32.35;;;15.48;;
70543;SDS011;58097;48.364;-1.224;2022-12-18T02:37:54;34.67;;;15.70;;
70543;SDS011;58097;48.364;-1.224;2022-12-18T02:40:22;34.70;;;15.82;;
70543;SDS011;58097;48.364;-1.224;2022-12-18T02:42:49;41.05;;;19.95;;
70543;SDS011;58097;48.364;-1.224;2022-12-18T02:45:15;33.42;;;15.60;;
70543;SDS011;58097;48.364;-1.224;2022-12-18T02:47:42;41.95;;;18.08;;
70543;SDS011;58097;48.364;-1.224;2022-12-18T02:55:30;38.50;;;16.30;;
70543;SDS011;58097;48.364;-1.224;2022-12-18T03:01:03;36.67;;;15.75;;
70543;SDS011;58097;48.364;-1.224;2022-12-18T03:03:42;29.77;;;14.98;;
70543;SDS011;58097;48.364;-1.224;2022-12-18T03:06:38;34.22;;;16.65;;
70543;SDS011;58097;48.364;-1.224;2022-12-18T03:09:08;38.40;;;17.02;;
70543;SDS011;58097;48.364;-1.224;2022-12-18T03:11:38;34.08;;;16.23;;
70543;SDS011;58097;48.364;-1.224;2022-12-18T03:14:25;35.45;;;16.45;;
70543;SDS011;58097;48.364;-1.224;2022-12-18T03:16:54;37.63;;;16.70;;
70543;SDS011;58097;48.364;-1.224;2022-12-18T03:19:26;21.33;;;11.60;;
70543;SDS011;58097;48.364;-1.224;2022-12-18T03:21:55;40.08;;;15.82;;
70543;SDS011;58097;48.364;-1.224;2022-12-18T03:24:23;38.47;;;16.73;;
70543;SDS011;58097;48.364;-1.224;2022-12-18T03:26:53;33.22;;;15.98;;
70543;SDS011;58097;48.364;-1.224;2022-12-18T03:29:24;36.90;;;16.00;;
70543;SDS011;58097;48.364;-1.224;2022-12-18T03:31:56;39.00;;;16.67;;
70543;SDS011;58097;48.364;-1.224;2022-12-18T03:34:31;41.00;;;17.30;;
70543;SDS011;58097;48.364;-1.224;2022-12-18T03:37:00;43.78;;;16.65;;
70543;SDS011;58097;48.364;-1.224;2022-12-18T03:39:28;35.15;;;16.42;;
70543;SDS011;58097;48.364;-1.224;2022-12-18T03:46:53;33.13;;;16.30;;
70543;SDS011;58097;48.364;-1.224;2022-12-18T03:49:38;31.58;;;16.50;;
70543;SDS011;58097;48.364;-1.224;2022-12-18T03:52:09;34.78;;;16.27;;
70543;SDS011;58097;48.364;-1.224;2022-12-18T03:54:42;38.78;;;17.20;;
70543;SDS011;58097;48.364;-1.224;2022-12-18T03:57:11;41.65;;;16.38;;
70543;SDS011;58097;48.364;-1.224;2022-12-18T03:59:43;35.67;;;15.77;;
70543;SDS011;58097;48.364;-1.224;2022-12-18T04:02:12;34.40;;;16.67;;
70543;SDS011;58097;48.364;-1.224;2022-12-18T04:04:39;35.05;;;15.23;;
70543;SDS011;58097;48.364;-1.224;2022-12-18T04:07:07;32.33;;;15.25;;
70543;SDS011;58097;48.364;-1.224;2022-12-18T04:09:32;40.85;;;17.10;;
70543;SDS011;58097;48.364;-1.224;2022-12-18T04:11:59;31.27;;;16.25;;
70543;SDS011;58097;48.364;-1.224;2022-12-18T04:14:24;38.45;;;17.70;;
70543;SDS011;58097;48.364;-1.224;2022-12-18T04:16:50;34.22;;;15.63;;
70543;SDS011;58097;48.364;-1.224;2022-12-18T04:19:15;35.60;;;15.75;;
70543;SDS011;58097;48.364;-1.224;2022-12-18T04:21:40;33.28;;;15.00;;
70543;SDS011;58097;48.364;-1.224;2022-12-18T04:24:06;30.70;;;14.95;;
70543;SDS011;58097;48.364;-1.224;2022-12-18T04:26:31;32.75;;;16.38;;
70543;SDS011;58097;48.364;-1.224;2022-12-18T04:28:57;38.88;;;17.10;;
70543;SDS011;58097;48.364;-1.224;2022-12-18T04:31:22;33.90;;;16.73;;
70543;SDS011;58097;48.364;-1.224;2022-12-18T04:33:47;39.97;;;17.98;;
70543;SDS011;58097;48.364;-1.224;2022-12-18T04:36:13;36.58;;;16.38;;
70543;SDS011;58097;48.364;-1.224;2022-12-18T04:38:38;33.53;;;15.30;;
70543;SDS011;58097;48.364;-1.224;2022-12-18T04:41:04;34.22;;;14.23;;
70543;SDS011;58097;48.364;-1.224;2022-12-18T04:43:29;38.95;;;17.55;;
70543;SDS011;58097;48.364;-1.224;2022-12-18T04:46:01;35.08;;;16.38;;
70543;SDS011;58097;48.364;-1.224;2022-12-18T04:48:27;32.03;;;16.42;;
70543;SDS011;58097;48.364;-1.224;2022-12-18T04:50:53;37.63;;;15.73;;
70543;SDS011;58097;48.364;-1.224;2022-12-18T04:53:18;37.05;;;17.88;;
70543;SDS011;58097;48.364;-1.224;2022-12-18T04:55:44;46.15;;;18.33;;
70543;SDS011;58097;48.364;-1.224;2022-12-18T04:58:09;35.67;;;17.75;;
70543;SDS011;58097;48.364;-1.224;2022-12-18T05:00:34;39.65;;;17.50;;
70543;SDS011;58097;48.364;-1.224;2022-12-18T05:03:00;38.55;;;17.65;;
70543;SDS011;58097;48.364;-1.224;2022-12-18T05:05:27;27.75;;;15.60;;
70543;SDS011;58097;48.364;-1.224;2022-12-18T05:07:52;34.45;;;16.23;;
70543;SDS011;58097;48.364;-1.224;2022-12-18T05:10:17;37.50;;;18.00;;
70543;SDS011;58097;48.364;-1.224;2022-12-18T05:12:43;32.17;;;16.45;;
70543;SDS011;58097;48.364;-1.224;2022-12-18T05:15:23;39.00;;;17.40;;
70543;SDS011;58097;48.364;-1.224;2022-12-18T05:17:53;40.97;;;15.43;;
70543;SDS011;58097;48.364;-1.224;2022-12-18T05:20:18;36.47;;;16.52;;
70543;SDS011;58097;48.364;-1.224;2022-12-18T05:22:44;30.85;;;15.55;;
70543;SDS011;58097;48.364;-1.224;2022-12-18T05:25:09;30.33;;;16.33;;
70543;SDS011;58097;48.364;-1.224;2022-12-18T05:27:35;40.40;;;16.52;;
70543;SDS011;58097;48.364;-1.224;2022-12-18T05:30:00;34.05;;;15.55;;
70543;SDS011;58097;48.364;-1.224;2022-12-18T05:32:25;33.55;;;16.38;;
70543;SDS011;58097;48.364;-1.224;2022-12-18T05:34:51;30.83;;;16.13;;
70543;SDS011;58097;48.364;-1.224;2022-12-18T05:37:16;34.00;;;16.27;;
70543;SDS011;58097;48.364;-1.224;2022-12-18T05:39:42;37.88;;;15.75;;
70543;SDS011;58097;48.364;-1.224;2022-12-18T05:42:08;37.35;;;18.08;;
70543;SDS011;58097;48.364;-1.224;2022-12-18T05:44:33;37.33;;;17.48;;
70543;SDS011;58097;48.364;-1.224;2022-12-18T05:46:59;40.90;;;17.30;;
70543;SDS011;58097;48.364;-1.224;2022-12-18T05:49:24;34.33;;;15.70;;
70543;SDS011;58097;48.364;-1.224;2022-12-18T05:51:49;33.03;;;16.38;;
70543;SDS011;58097;48.364;-1.224;2022-12-18T05:54:15;31.52;;;16.10;;
70543;SDS011;58097;48.364;-1.224;2022-12-18T05:56:40;35.92;;;16.98;;
70543;SDS011;58097;48.364;-1.224;2022-12-18T05:59:05;36.22;;;16.38;;
70543;SDS011;58097;48.364;-1.224;2022-12-18T06:01:31;39.38;;;16.02;;
70543;SDS011;58097;48.364;-1.224;2022-12-18T06:03:56;34.55;;;16.35;;
70543;SDS011;58097;48.364;-1.224;2022-12-18T06:06:25;36.22;;;16.88;;
70543;SDS011;58097;48.364;-1.224;2022-12-18T06:08:52;34.33;;;17.90;;
70543;SDS011;58097;48.364;-1.224;2022-12-18T06:11:21;33.45;;;15.93;;
70543;SDS011;58097;48.364;-1.224;2022-12-18T06:13:49;41.22;;;16.38;;
70543;SDS011;58097;48.364;-1.224;2022-12-18T06:16:15;38.75;;;16.73;;
70543;SDS011;58097;48.364;-1.224;2022-12-18T06:18:40;38.05;;;17.48;;
70543;SDS011;58097;48.364;-1.224;2022-12-18T06:21:06;32.25;;;17.77;;
70543;SDS011;58097;48.364;-1.224;2022-12-18T06:23:32;34.58;;;15.23;;
70543;SDS011;58097;48.364;-1.224;2022-12-18T06:25:57;33.90;;;18.08;;
70543;SDS011;58097;48.364;-1.224;2022-12-18T06:28:22;30.73;;;15.85;;
70543;SDS011;58097;48.364;-1.224;2022-12-18T06:30:48;32.55;;;15.80;;
70543;SDS011;58097;48.364;-1.224;2022-12-18T06:33:14;36.50;;;15.98;;
70543;SDS011;58097;48.364;-1.224;2022-12-18T06:35:41;33.88;;;16.05;;
70543;SDS011;58097;48.364;-1.224;2022-12-18T06:38:06;33.78;;;16.63;;
70543;SDS011;58097;48.364;-1.224;2022-12-18T06:40:32;37.15;;;16.95;;
70543;SDS011;58097;48.364;-1.224;2022-12-18T06:42:59;37.88;;;17.65;;
70543;SDS011;58097;48.364;-1.224;2022-12-18T06:45:24;34.90;;;15.95;;
70543;SDS011;58097;48.364;-1.224;2022-12-18T06:47:50;39.83;;;17.05;;
70543;SDS011;58097;48.364;-1.224;2022-12-18T06:50:15;34.50;;;15.50;;
70543;SDS011;58097;48.364;-1.224;2022-12-18T06:52:41;37.75;;;17.30;;
70543;SDS011;58097;48.364;-1.224;2022-12-18T06:55:07;34.30;;;17.98;;
70543;SDS011;58097;48.364;-1.224;2022-12-18T06:57:33;40.75;;;18.35;;
70543;SDS011;58097;48.364;-1.224;2022-12-18T06:59:58;37.40;;;17.08;;
70543;SDS011;58097;48.364;-1.224;2022-12-18T07:02:24;43.40;;;18.98;;
70543;SDS011;58097;48.364;-1.224;2022-12-18T07:04:50;34.20;;;17.25;;
70543;SDS011;58097;48.364;-1.224;2022-12-18T07:07:15;42.80;;;18.75;;
70543;SDS011;58097;48.364;-1.224;2022-12-18T07:09:41;39.53;;;17.02;;
70543;SDS011;58097;48.364;-1.224;2022-12-18T07:12:06;39.15;;;17.42;;
70543;SDS011;58097;48.364;-1.224;2022-12-18T07:14:32;37.25;;;17.67;;
70543;SDS011;58097;48.364;-1.224;2022-12-18T07:16:58;46.85;;;19.92;;
70543;SDS011;58097;48.364;-1.224;2022-12-18T07:19:24;35.35;;;17.95;;
70543;SDS011;58097;48.364;-1.224;2022-12-18T07:21:49;42.38;;;17.00;;
70543;SDS011;58097;48.364;-1.224;2022-12-18T07:24:15;39.50;;;18.77;;
70543;SDS011;58097;48.364;-1.224;2022-12-18T07:26:41;44.22;;;16.88;;
70543;SDS011;58097;48.364;-1.224;2022-12-18T07:29:06;43.38;;;17.17;;
70543;SDS011;58097;48.364;-1.224;2022-12-18T07:31:31;39.53;;;19.73;;
70543;SDS011;58097;48.364;-1.224;2022-12-18T07:33:57;39.83;;;19.65;;
70543;SDS011;58097;48.364;-1.224;2022-12-18T07:36:22;46.85;;;20.08;;
70543;SDS011;58097;48.364;-1.224;2022-12-18T07:38:48;56.15;;;18.85;;
70543;SDS011;58097;48.364;-1.224;2022-12-18T07:41:13;46.95;;;19.98;;
70543;SDS011;58097;48.364;-1.224;2022-12-18T07:43:40;44.78;;;19.98;;
70543;SDS011;58097;48.364;-1.224;2022-12-18T07:46:06;48.00;;;19.08;;
70543;SDS011;58097;48.364;-1.224;2022-12-18T07:48:32;48.15;;;18.70;;
70543;SDS011;58097;48.364;-1.224;2022-12-18T07:51:01;42.78;;;18.00;;
70543;SDS011;58097;48.364;-1.224;2022-12-18T07:53:29;46.30;;;17.77;;
70543;SDS011;58097;48.364;-1.224;2022-12-18T07:55:58;41.33;;;19.92;;
70543;SDS011;58097;48.364;-1.224;2022-12-18T07:58:25;52.05;;;19.55;;
70543;SDS011;58097;48.364;-1.224;2022-12-18T08:00:51;37.30;;;17.17;;
70543;SDS011;58097;48.364;-1.224;2022-12-18T08:03:17;45.92;;;18.38;;
70543;SDS011;58097;48.364;-1.224;2022-12-18T08:05:43;47.17;;;19.13;;
70543;SDS011;58097;48.364;-1.224;2022-12-18T08:08:08;49.17;;;20.40;;
70543;SDS011;58097;48.364;-1.224;2022-12-18T08:10:34;51.97;;;20.30;;
70543;SDS011;58097;48.364;-1.224;2022-12-18T08:12:59;47.53;;;19.55;;
70543;SDS011;58097;48.364;-1.224;2022-12-18T08:15:24;52.92;;;19.35;;
70543;SDS011;58097;48.364;-1.224;2022-12-18T08:17:50;50.28;;;19.58;;
70543;SDS011;58097;48.364;-1.224;2022-12-18T08:20:15;52.30;;;19.90;;
70543;SDS011;58097;48.364;-1.224;2022-12-18T08:22:42;50.55;;;19.63;;
70543;SDS011;58097;48.364;-1.224;2022-12-18T08:25:07;58.97;;;22.75;;
70543;SDS011;58097;48.364;-1.224;2022-12-18T08:27:33;43.30;;;19.15;;
70543;SDS011;58097;48.364;-1.224;2022-12-18T08:29:59;60.03;;;21.77;;
70543;SDS011;58097;48.364;-1.224;2022-12-18T08:32:24;51.78;;;19.65;;
70543;SDS011;58097;48.364;-1.224;2022-12-18T08:34:51;55.20;;;21.15;;
70543;SDS011;58097;48.364;-1.224;2022-12-18T08:37:16;52.47;;;19.80;;
70543;SDS011;58097;48.364;-1.224;2022-12-18T08:39:42;43.10;;;19.52;;
70543;SDS011;58097;48.364;-1.224;2022-12-18T08:42:07;49.45;;;19.35;;
70543;SDS011;58097;48.364;-1.224;2022-12-18T08:44:50;48.92;;;19.23;;
70543;SDS011;58097;48.364;-1.224;2022-12-18T08:47:16;46.42;;;21.65;;
70543;SDS011;58097;48.364;-1.224;2022-12-18T08:49:41;40.35;;;17.63;;
70543;SDS011;58097;48.364;-1.224;2022-12-18T08:52:06;52.17;;;20.50;;
70543;SDS011;58097;48.364;-1.224;2022-12-18T08:54:32;46.15;;;20.02;;
70543;SDS011;58097;48.364;-1.224;2022-12-18T08:56:57;51.00;;;19.00;;
70543;SDS011;58097;48.364;-1.224;2022-12-18T08:59:22;52.55;;;20.73;;
70543;SDS011;58097;48.364;-1.224;2022-12-18T09:01:48;50.55;;;19.58;;
70543;SDS011;58097;48.364;-1.224;2022-12-18T09:04:14;39.38;;;18.92;;
70543;SDS011;58097;48.364;-1.224;2022-12-18T09:06:39;43.38;;;19.23;;
70543;SDS011;58097;48.364;-1.224;2022-12-18T09:09:05;44.35;;;18.75;;
70543;SDS011;58097;48.364;-1.224;2022-12-18T09:11:31;46.95;;;18.88;;
70543;SDS011;58097;48.364;-1.224;2022-12-18T09:13:57;40.10;;;18.40;;
70543;SDS011;58097;48.364;-1.224;2022-12-18T09:16:24;42.17;;;17.80;;
70543;SDS011;58097;48.364;-1.224;2022-12-18T09:18:51;41.47;;;19.02;;
70543;SDS011;58097;48.364;-1.224;2022-12-18T09:21:19;42.03;;;20.35;;
70543;SDS011;58097;48.364;-1.224;2022-12-18T09:23:49;41.13;;;18.67;;
70543;SDS011;58097;48.364;-1.224;2022-12-18T09:26:15;33.50;;;17.23;;
70543;SDS011;58097;48.364;-1.224;2022-12-18T09:28:40;43.33;;;19.15;;
70543;SDS011;58097;48.364;-1.224;2022-12-18T09:31:07;42.13;;;18.08;;
70543;SDS011;58097;48.364;-1.224;2022-12-18T09:33:34;47.53;;;18.55;;
70543;SDS011;58097;48.364;-1.224;2022-12-18T09:36:02;38.88;;;17.58;;
70543;SDS011;58097;48.364;-1.224;2022-12-18T09:38:29;33.85;;;18.30;;
70543;SDS011;58097;48.364;-1.224;2022-12-18T09:40:57;46.38;;;18.95;;
70543;SDS011;58097;48.364;-1.224;2022-12-18T09:46:10;39.53;;;17.63;;
70543;SDS011;58097;48.364;-1.224;2022-12-18T09:48:41;51.53;;;19.58;;
70543;SDS011;58097;48.364;-1.224;2022-12-18T09:51:32;34.95;;;17.13;;
70543;SDS011;58097;48.364;-1.224;2022-12-18T09:54:25;37.92;;;17.45;;
70543;SDS011;58097;48.364;-1.224;2022-12-18T09:56:57;35.60;;;17.50;;
70543;SDS011;58097;48.364;-1.224;2022-12-18T09:59:34;41.05;;;18.73;;
70543;SDS011;58097;48.364;-1.224;2022-12-18T10:02:15;42.67;;;21.55;;
70543;SDS011;58097;48.364;-1.224;2022-12-18T10:04:43;32.40;;;16.77;;
70543;SDS011;58097;48.364;-1.224;2022-12-18T10:07:15;37.50;;;17.35;;
70543;SDS011;58097;48.364;-1.224;2022-12-18T10:12:22;41.50;;;18.75;;
70543;SDS011;58097;48.364;-1.224;2022-12-18T10:18:02;37.55;;;16.80;;
70543;SDS011;58097;48.364;-1.224;2022-12-18T10:21:27;33.15;;;16.88;;
70543;SDS011;58097;48.364;-1.224;2022-12-18T10:26:51;42.13;;;18.80;;
70543;SDS011;58097;48.364;-1.224;2022-12-18T10:29:18;36.72;;;18.55;;
70543;SDS011;58097;48.364;-1.224;2022-12-18T10:31:44;50.85;;;19.83;;
70543;SDS011;58097;48.364;-1.224;2022-12-18T10:34:13;35.45;;;17.60;;
70543;SDS011;58097;48.364;-1.224;2022-12-18T10:36:38;41.55;;;17.95;;
70543;SDS011;58097;48.364;-1.224;2022-12-18T10:39:20;39.50;;;18.88;;
70543;SDS011;58097;48.364;-1.224;2022-12-18T10:41:48;40.63;;;19.00;;
70543;SDS011;58097;48.364;-1.224;2022-12-18T10:44:17;40.83;;;18.02;;
70543;SDS011;58097;48.364;-1.224;2022-12-18T10:46:48;35.00;;;17.35;;
70543;SDS011;58097;48.364;-1.224;2022-12-18T10:49:29;42.70;;;21.35;;
70543;SDS011;58097;48.364;-1.224;2022-12-18T10:52:18;36.83;;;17.60;;
70543;SDS011;58097;48.364;-1.224;2022-12-18T10:54:54;38.50;;;18.00;;
70543;SDS011;58097;48.364;-1.224;2022-12-18T10:59:52;40.22;;;18.40;;
70543;SDS011;58097;48.364;-1.224;2022-12-18T11:02:40;36.90;;;17.80;;
70543;SDS011;58097;48.364;-1.224;2022-12-18T11:05:25;35.17;;;16.45;;
70543;SDS011;58097;48.364;-1.224;2022-12-18T11:08:02;42.22;;;19.35;;
70543;SDS011;58097;48.364;-1.224;2022-12-18T11:10:30;47.08;;;18.52;;
70543;SDS011;58097;48.364;-1.224;2022-12-18T11:13:19;37.45;;;17.20;;
70543;SDS011;58097;48.364;-1.224;2022-12-18T11:15:44;38.60;;;17.13;;
70543;SDS011;58097;48.364;-1.224;2022-12-18T11:18:17;32.88;;;17.75;;
70543;SDS011;58097;48.364;-1.224;2022-12-18T11:20:51;41.03;;;17.80;;
70543;SDS011;58097;48.364;-1.224;2022-12-18T11:23:24;40.50;;;19.02;;
70543;SDS011;58097;48.364;-1.224;2022-12-18T11:25:51;37.22;;;17.77;;
70543;SDS011;58097;48.364;-1.224;2022-12-18T11:36:43;33.35;;;17.02;;
70543;SDS011;58097;48.364;-1.224;2022-12-18T11:39:22;36.17;;;16.50;;
70543;SDS011;58097;48.364;-1.224;2022-12-18T11:41:58;35.35;;;17.42;;
70543;SDS011;58097;48.364;-1.224;2022-12-18T11:44:41;40.72;;;17.42;;
70543;SDS011;58097;48.364;-1.224;2022-12-18T11:47:30;30.15;;;17.38;;
70543;SDS011;58097;48.364;-1.224;2022-12-18T11:49:53;29.35;;;16.35;;
70543;SDS011;58097;48.364;-1.224;2022-12-18T11:52:31;35.88;;;16.23;;
70543;SDS011;58097;48.364;-1.224;2022-12-18T11:55:07;32.78;;;16.60;;
70543;SDS011;58097;48.364;-1.224;2022-12-18T12:00:47;28.73;;;14.35;;
70543;SDS011;58097;48.364;-1.224;2022-12-18T12:06:17;37.22;;;17.95;;
70543;SDS011;58097;48.364;-1.224;2022-12-18T12:22:59;35.60;;;16.90;;
70543;SDS011;58097;48.364;-1.224;2022-12-18T12:25:51;32.55;;;16.77;;
70543;SDS011;58097;48.364;-1.224;2022-12-18T12:39:56;32.58;;;15.73;;
70543;SDS011;58097;48.364;-1.224;2022-12-18T12:45:34;29.40;;;15.30;;
70543;SDS011;58097;48.364;-1.224;2022-12-18T12:48:05;28.38;;;14.98;;
70543;SDS011;58097;48.364;-1.224;2022-12-18T12:50:36;24.90;;;14.30;;
70543;SDS011;58097;48.364;-1.224;2022-12-18T12:53:06;27.52;;;15.38;;
70543;SDS011;58097;48.364;-1.224;2022-12-18T12:55:34;26.38;;;15.35;;
70543;SDS011;58097;48.364;-1.224;2022-12-18T12:58:05;32.65;;;16.08;;
70543;SDS011;58097;48.364;-1.224;2022-12-18T13:00:41;32.13;;;16.92;;
70543;SDS011;58097;48.364;-1.224;2022-12-18T13:03:28;32.38;;;16.80;;
70543;SDS011;58097;48.364;-1.224;2022-12-18T13:06:12;28.10;;;16.00;;
70543;SDS011;58097;48.364;-1.224;2022-12-18T13:08:54;28.38;;;15.32;;
70543;SDS011;58097;48.364;-1.224;2022-12-18T13:11:28;30.88;;;16.80;;
70543;SDS011;58097;48.364;-1.224;2022-12-18T13:14:34;26.40;;;14.63;;
70543;SDS011;58097;48.364;-1.224;2022-12-18T13:19:41;31.35;;;15.73;;
70543;SDS011;58097;48.364;-1.224;2022-12-18T13:22:19;27.98;;;14.38;;
70543;SDS011;58097;48.364;-1.224;2022-12-18T13:24:47;30.10;;;15.57;;
70543;SDS011;58097;48.364;-1.224;2022-12-18T13:41:21;29.52;;;16.83;;
70543;SDS011;58097;48.364;-1.224;2022-12-18T13:43:53;26.27;;;15.70;;
70543;SDS011;58097;48.364;-1.224;2022-12-18T13:46:29;26.13;;;15.73;;
70543;SDS011;58097;48.364;-1.224;2022-12-18T13:51:39;20.88;;;12.77;;
70543;SDS011;58097;48.364;-1.224;2022-12-18T13:54:16;26.73;;;14.57;;
70543;SDS011;58097;48.364;-1.224;2022-12-18T13:56:55;33.28;;;16.98;;
70543;SDS011;58097;48.364;-1.224;2022-12-18T13:59:22;29.02;;;14.50;;
70543;SDS011;58097;48.364;-1.224;2022-12-18T14:01:53;28.15;;;16.17;;
70543;SDS011;58097;48.364;-1.224;2022-12-18T14:06:49;28.17;;;17.35;;
70543;SDS011;58097;48.364;-1.224;2022-12-18T14:09:18;28.83;;;14.32;;
70543;SDS011;58097;48.364;-1.224;2022-12-18T14:11:49;20.33;;;11.75;;
70543;SDS011;58097;48.364;-1.224;2022-12-18T14:14:18;31.77;;;16.15;;
70543;SDS011;58097;48.364;-1.224;2022-12-18T14:16:45;28.10;;;16.08;;
70543;SDS011;58097;48.364;-1.224;2022-12-18T14:19:13;25.35;;;15.63;;
70543;SDS011;58097;48.364;-1.224;2022-12-18T14:21:45;28.40;;;15.45;;
70543;SDS011;58097;48.364;-1.224;2022-12-18T14:24:13;27.80;;;15.98;;
70543;SDS011;58097;48.364;-1.224;2022-12-18T14:26:40;25.52;;;15.13;;
70543;SDS011;58097;48.364;-1.224;2022-12-18T14:32:11;22.13;;;15.18;;
70543;SDS011;58097;48.364;-1.224;2022-12-18T14:34:41;31.95;;;16.35;;
70543;SDS011;58097;48.364;-1.224;2022-12-18T14:37:09;28.73;;;16.67;;
70543;SDS011;58097;48.364;-1.224;2022-12-18T14:39:36;34.13;;;16.02;;
70543;SDS011;58097;48.364;-1.224;2022-12-18T14:42:01;30.10;;;16.38;;
70543;SDS011;58097;48.364;-1.224;2022-12-18T14:44:26;32.97;;;17.45;;
70543;SDS011;58097;48.364;-1.224;2022-12-18T14:46:52;28.25;;;15.70;;
70543;SDS011;58097;48.364;-1.224;2022-12-18T14:49:25;33.53;;;17.40;;
70543;SDS011;58097;48.364;-1.224;2022-12-18T14:51:54;28.15;;;16.38;;
70543;SDS011;58097;48.364;-1.224;2022-12-18T14:54:22;32.03;;;17.17;;
70543;SDS011;58097;48.364;-1.224;2022-12-18T14:56:50;30.58;;;16.70;;
70543;SDS011;58097;48.364;-1.224;2022-12-18T14:59:22;33.90;;;18.02;;
70543;SDS011;58097;48.364;-1.224;2022-12-18T15:09:36;28.88;;;15.07;;
70543;SDS011;58097;48.364;-1.224;2022-12-18T15:12:02;27.75;;;15.82;;
70543;SDS011;58097;48.364;-1.224;2022-12-18T15:14:30;23.15;;;13.93;;
70543;SDS011;58097;48.364;-1.224;2022-12-18T15:16:56;30.55;;;14.77;;
70543;SDS011;58097;48.364;-1.224;2022-12-18T15:19:27;31.77;;;15.40;;
70543;SDS011;58097;48.364;-1.224;2022-12-18T15:22:01;28.27;;;15.25;;
70543;SDS011;58097;48.364;-1.224;2022-12-18T15:24:27;30.45;;;15.25;;
70543;SDS011;58097;48.364;-1.224;2022-12-18T15:26:56;23.52;;;14.10;;
70543;SDS011;58097;48.364;-1.224;2022-12-18T15:29:22;25.77;;;15.10;;
70543;SDS011;58097;48.364;-1.224;2022-12-18T15:34:29;26.75;;;15.07;;
70543;SDS011;58097;48.364;-1.224;2022-12-18T15:36:56;25.55;;;13.98;;
70543;SDS011;58097;48.364;-1.224;2022-12-18T15:39:21;23.77;;;14.65;;
70543;SDS011;58097;48.364;-1.224;2022-12-18T15:41:47;20.63;;;13.40;;
70543;SDS011;58097;48.364;-1.224;2022-12-18T15:44:31;22.40;;;12.93;;
70543;SDS011;58097;48.364;-1.224;2022-12-18T15:46:57;21.05;;;12.27;;
70543;SDS011;58097;48.364;-1.224;2022-12-18T15:49:22;26.10;;;11.77;;
70543;SDS011;58097;48.364;-1.224;2022-12-18T15:51:58;19.15;;;11.32;;
70543;SDS011;58097;48.364;-1.224;2022-12-18T15:54:24;20.02;;;11.70;;
70543;SDS011;58097;48.364;-1.224;2022-12-18T15:57:12;18.77;;;10.52;;
70543;SDS011;58097;48.364;-1.224;2022-12-18T15:59:50;18.55;;;11.23;;
70543;SDS011;58097;48.364;-1.224;2022-12-18T16:02:18;23.50;;;12.88;;
70543;SDS011;58097;48.364;-1.224;2022-12-18T16:04:44;18.95;;;11.10;;
70543;SDS011;58097;48.364;-1.224;2022-12-18T16:07:10;19.92;;;11.60;;
70543;SDS011;58097;48.364;-1.224;2022-12-18T16:09:36;21.02;;;12.05;;
70543;SDS011;58097;48.364;-1.224;2022-12-18T16:12:03;22.27;;;11.82;;
70543;SDS011;58097;48.364;-1.224;2022-12-18T16:14:39;20.80;;;10.30;;
70543;SDS011;58097;48.364;-1.224;2022-12-18T16:17:05;20.73;;;11.73;;
70543;SDS011;58097;48.364;-1.224;2022-12-18T16:19:33;15.77;;;10.88;;
70543;SDS011;58097;48.364;-1.224;2022-12-18T16:21:59;19.40;;;11.70;;
70543;SDS011;58097;48.364;-1.224;2022-12-18T16:24:30;16.48;;;10.48;;
70543;SDS011;58097;48.364;-1.224;2022-12-18T16:26:57;19.23;;;10.77;;